createdAt,value
2022-10-24T00:01:23.604Z,91.67
2022-10-24T00:03:51.151Z,91.70
2022-10-24T00:06:20.199Z,91.60
2022-10-24T00:08:49.070Z,91.47
2022-10-24T00:11:27.969Z,91.55
2022-10-24T00:13:57.547Z,91.38
2022-10-24T00:16:26.552Z,91.45
2022-10-24T00:18:54.906Z,91.49
2022-10-24T00:21:22.699Z,91.42
2022-10-24T00:23:49.759Z,91.28
2022-10-24T00:26:17.125Z,91.10
2022-10-24T00:28:44.816Z,90.97
2022-10-24T00:31:18.562Z,90.85
2022-10-24T00:33:49.507Z,90.77
2022-10-24T00:36:21.083Z,90.75
2022-10-24T00:38:50.616Z,90.65
2022-10-24T00:41:34.980Z,90.39
2022-10-24T00:44:29.521Z,90.28
2022-10-24T00:47:07.119Z,89.97
2022-10-24T00:50:04.411Z,89.83
2022-10-24T00:52:42.480Z,89.43
2022-10-24T00:55:12.317Z,89.89
2022-10-24T00:57:55.067Z,89.39
2022-10-24T01:00:27.673Z,89.43
2022-10-24T01:02:55.376Z,89.16
2022-10-24T01:05:28.182Z,88.99
2022-10-24T01:08:14.997Z,88.62
2022-10-24T01:10:54.148Z,88.47
2022-10-24T01:13:54.583Z,88.30
2022-10-24T01:16:50.437Z,87.97
2022-10-24T01:19:50.715Z,88.15
2022-10-24T01:22:37.944Z,88.11
2022-10-24T01:25:35.239Z,87.75
2022-10-24T01:28:11.422Z,87.91
2022-10-24T01:31:01.603Z,87.73
2022-10-24T01:33:49.363Z,87.35
2022-10-24T01:36:32.955Z,87.04
2022-10-24T01:39:07.090Z,86.38
2022-10-24T01:41:35.288Z,86.74
2022-10-24T01:44:10.222Z,86.33
2022-10-24T01:46:52.440Z,86.43
2022-10-24T01:49:26.078Z,86.21
2022-10-24T01:51:59.714Z,85.88
2022-10-24T01:54:28.776Z,85.80
2022-10-24T01:56:55.823Z,85.64
2022-10-24T01:59:28.609Z,85.30
2022-10-24T02:02:05.769Z,84.82
2022-10-24T02:04:40.768Z,84.52
2022-10-24T02:07:12.050Z,84.27
2022-10-24T02:09:43.544Z,83.92
2022-10-24T02:12:17.130Z,83.85
2022-10-24T02:14:54.228Z,83.16
2022-10-24T02:17:21.328Z,82.95
2022-10-24T02:19:49.347Z,82.56
2022-10-24T02:22:41.220Z,82.18
2022-10-24T02:25:21.191Z,81.23
2022-10-24T02:28:09.336Z,81.00
2022-10-24T02:30:45.324Z,81.07
2022-10-24T02:33:15.990Z,80.87
2022-10-24T02:35:46.379Z,81.06
2022-10-24T02:38:22.672Z,81.16
2022-10-24T02:40:53.586Z,80.73
2022-10-24T02:43:23.400Z,80.38
2022-10-24T02:45:54.857Z,80.30
2022-10-24T02:48:30.180Z,80.03
2022-10-24T02:50:58.337Z,79.56
2022-10-24T02:53:27.959Z,79.69
2022-10-24T02:55:55.284Z,79.63
2022-10-24T02:58:22.331Z,79.64
2022-10-24T03:00:49.497Z,79.21
2022-10-24T03:03:16.662Z,78.62
2022-10-24T03:05:43.646Z,78.18
2022-10-24T03:08:12.802Z,78.11
2022-10-24T03:10:40.584Z,78.37
2022-10-24T03:13:07.779Z,78.28
2022-10-24T03:15:34.805Z,77.87
2022-10-24T03:18:01.904Z,78.31
2022-10-24T03:20:28.973Z,77.90
2022-10-24T03:22:55.921Z,77.62
2022-10-24T03:25:22.992Z,77.98
2022-10-24T03:27:49.975Z,77.82
2022-10-24T03:30:17.018Z,77.83
2022-10-24T03:32:44.393Z,78.01
2022-10-24T03:35:14.209Z,77.69
2022-10-24T03:37:41.816Z,77.62
2022-10-24T03:40:10.893Z,77.42
2022-10-24T03:42:39.210Z,77.13
2022-10-24T03:45:07.667Z,76.91
2022-10-24T03:47:34.635Z,77.20
2022-10-24T03:50:01.784Z,77.12
2022-10-24T03:52:28.837Z,77.06
2022-10-24T03:54:55.852Z,77.14
2022-10-24T03:57:22.988Z,77.13
2022-10-24T03:59:50.209Z,77.11
2022-10-24T04:02:17.395Z,77.10
2022-10-24T04:04:44.326Z,77.17
2022-10-24T04:07:11.352Z,77.06
2022-10-24T04:09:38.399Z,76.90
2022-10-24T04:12:05.734Z,76.61
2022-10-24T04:14:32.893Z,76.28
2022-10-24T04:16:59.902Z,76.05
2022-10-24T04:19:27.026Z,76.60
2022-10-24T04:21:54.276Z,76.78
2022-10-24T04:24:21.536Z,76.72
2022-10-24T04:26:48.553Z,76.31
2022-10-24T04:29:15.660Z,76.33
2022-10-24T04:31:42.713Z,76.31
2022-10-24T04:34:09.788Z,76.07
2022-10-24T04:36:36.858Z,76.14
2022-10-24T04:39:04.024Z,76.27
2022-10-24T04:41:31.147Z,76.41
2022-10-24T04:43:58.905Z,76.01
2022-10-24T04:46:25.972Z,75.95
2022-10-24T04:48:54.011Z,76.11
2022-10-24T04:51:22.492Z,75.75
2022-10-24T04:53:51.190Z,75.66
2022-10-24T04:56:19.329Z,75.71
2022-10-24T04:58:46.750Z,75.44
2022-10-24T05:01:14.047Z,75.13
2022-10-24T05:03:41.048Z,75.63
2022-10-24T05:06:08.085Z,75.73
2022-10-24T05:08:36.984Z,75.70
2022-10-24T05:11:05.191Z,75.96
2022-10-24T05:13:36.668Z,76.42
2022-10-24T05:16:06.824Z,76.31
2022-10-24T05:18:34.754Z,76.88
2022-10-24T05:21:02.550Z,76.61
2022-10-24T05:23:30.265Z,76.41
2022-10-24T05:25:57.514Z,76.18
2022-10-24T05:28:25.127Z,76.10
2022-10-24T05:30:59.437Z,75.74
2022-10-24T05:33:27.222Z,75.32
2022-10-24T05:35:57.968Z,74.92
2022-10-24T05:38:25.776Z,75.14
2022-10-24T05:40:54.660Z,74.73
2022-10-24T05:43:22.731Z,74.91
2022-10-24T05:48:18.306Z,75.22
2022-10-24T05:50:46.444Z,75.38
2022-10-24T05:53:13.484Z,74.73
2022-10-24T05:55:40.531Z,75.29
2022-10-24T05:58:07.578Z,75.44
2022-10-24T06:00:34.672Z,75.32
2022-10-24T06:03:01.683Z,75.34
2022-10-24T06:05:29.772Z,74.27
2022-10-24T06:07:59.575Z,74.48
2022-10-24T06:10:26.580Z,74.37
2022-10-24T06:12:53.499Z,74.57
2022-10-24T06:15:24.554Z,74.37
2022-10-24T06:17:52.177Z,74.01
2022-10-24T06:20:19.272Z,74.10
2022-10-24T06:22:49.038Z,74.03
2022-10-24T06:25:17.288Z,73.56
2022-10-24T06:27:44.475Z,73.43
2022-10-24T06:30:12.005Z,73.59
2022-10-24T06:32:43.601Z,73.60
2022-10-24T06:35:14.737Z,73.61
2022-10-24T06:37:45.855Z,73.90
2022-10-24T06:40:16.205Z,73.83
2022-10-24T06:42:43.885Z,73.62
2022-10-24T06:45:11.911Z,73.71
2022-10-24T06:47:38.989Z,73.78
2022-10-24T06:50:07.147Z,73.62
2022-10-24T06:52:34.219Z,74.02
2022-10-24T06:55:01.308Z,74.04
2022-10-24T06:57:28.580Z,73.73
2022-10-24T06:59:55.620Z,73.95
2022-10-24T07:02:22.864Z,73.85
2022-10-24T07:04:50.072Z,73.95
2022-10-24T07:07:21.461Z,73.66
2022-10-24T07:09:57.923Z,73.85
2022-10-24T07:12:26.148Z,73.86
2022-10-24T07:14:53.171Z,73.65
2022-10-24T07:17:20.678Z,73.85
2022-10-24T07:19:54.948Z,73.78
2022-10-24T07:22:21.942Z,73.79
2022-10-24T07:24:56.237Z,73.61
2022-10-24T07:27:23.821Z,73.48
2022-10-24T07:29:51.809Z,73.49
2022-10-24T07:32:21.242Z,73.60
2022-10-24T07:34:48.522Z,73.30
2022-10-24T07:37:18.573Z,73.00
2022-10-24T07:39:46.668Z,73.03
2022-10-24T07:42:15.511Z,73.02
2022-10-24T07:44:42.647Z,72.74
2022-10-24T07:47:10.161Z,72.65
2022-10-24T07:49:38.625Z,72.35
2022-10-24T07:52:06.239Z,72.06
2022-10-24T07:54:36.403Z,72.05
2022-10-24T07:57:05.203Z,71.45
2022-10-24T07:59:47.747Z,71.45
2022-10-24T08:02:16.674Z,71.00
2022-10-24T08:04:44.842Z,70.77
2022-10-24T08:07:13.714Z,70.63
2022-10-24T08:09:44.886Z,70.08
2022-10-24T08:12:13.781Z,70.36
2022-10-24T08:14:42.114Z,70.59
2022-10-24T08:17:10.583Z,69.78
2022-10-24T08:19:43.665Z,69.88
2022-10-24T08:22:11.948Z,70.27
2022-10-24T08:24:39.012Z,70.73
2022-10-24T08:27:06.009Z,70.61
2022-10-24T08:29:33.124Z,71.12
2022-10-24T08:32:00.619Z,70.99
2022-10-24T08:34:27.967Z,70.87
2022-10-24T08:36:55.113Z,71.01
2022-10-24T08:39:27.986Z,70.86
2022-10-24T08:42:01.716Z,70.65
2022-10-24T08:44:36.507Z,70.88
2022-10-24T08:47:13.575Z,68.93
2022-10-24T08:50:17.257Z,68.86
2022-10-24T08:52:58.111Z,69.21
2022-10-24T08:55:50.552Z,68.57
2022-10-24T08:58:23.554Z,67.62
2022-10-24T09:00:55.154Z,67.56
2022-10-24T09:03:55.096Z,66.93
2022-10-24T09:06:28.563Z,66.30
2022-10-24T09:08:58.470Z,66.51
2022-10-24T09:11:53.348Z,66.57
2022-10-24T09:14:30.110Z,66.54
2022-10-24T09:20:03.067Z,66.18
2022-10-24T09:22:35.202Z,66.55
2022-10-24T09:25:14.848Z,66.28
2022-10-24T09:27:42.970Z,66.03
2022-10-24T09:30:21.176Z,66.51
2022-10-24T09:32:48.689Z,66.13
2022-10-24T09:35:23.169Z,65.47
2022-10-24T09:37:57.489Z,65.67
2022-10-24T09:40:27.749Z,65.65
2022-10-24T09:43:15.288Z,65.87
2022-10-24T09:45:48.366Z,65.73
2022-10-24T09:48:44.804Z,66.53
2022-10-24T09:51:45.417Z,65.66
2022-10-24T09:54:18.660Z,66.21
2022-10-24T09:57:03.263Z,65.55
2022-10-24T09:59:36.687Z,65.63
2022-10-24T10:02:34.305Z,65.37
2022-10-24T10:05:04.267Z,65.69
2022-10-24T10:07:42.188Z,66.06
2022-10-24T10:10:18.505Z,65.78
2022-10-24T10:13:04.125Z,65.59
2022-10-24T10:15:52.467Z,65.29
2022-10-24T10:18:41.378Z,65.78
2022-10-24T10:21:24.458Z,65.79
2022-10-24T10:23:56.778Z,65.33
2022-10-24T10:26:42.489Z,65.56
2022-10-24T10:29:19.101Z,65.30
2022-10-24T10:32:07.131Z,64.64
2022-10-24T10:34:51.489Z,64.59
2022-10-24T10:37:32.042Z,64.87
2022-10-24T10:40:01.877Z,64.46
2022-10-24T10:42:50.578Z,64.84
2022-10-24T10:45:59.721Z,65.12
2022-10-24T10:49:19.784Z,65.66
2022-10-24T10:52:05.823Z,65.77
2022-10-24T10:54:47.530Z,66.25
2022-10-24T10:57:21.578Z,66.95
2022-10-24T11:00:08.633Z,67.50
2022-10-24T11:02:59.767Z,67.93
2022-10-24T11:06:11.139Z,67.86
2022-10-24T11:09:00.510Z,67.85
2022-10-24T11:11:36.009Z,68.17
2022-10-24T11:14:53.415Z,68.42
2022-10-24T11:17:29.983Z,68.81
2022-10-24T11:20:13.406Z,68.81
2022-10-24T11:22:55.173Z,68.53
2022-10-24T11:25:43.344Z,66.98
2022-10-24T11:28:31.795Z,67.71
2022-10-24T11:31:05.592Z,67.22
2022-10-24T11:33:45.717Z,67.58
2022-10-24T11:37:01.062Z,66.89
2022-10-24T11:40:06.397Z,67.06
2022-10-24T11:42:57.907Z,67.09
2022-10-24T11:45:37.635Z,67.88
2022-10-24T11:48:19.990Z,68.41
2022-10-24T11:50:58.296Z,69.34
2022-10-24T11:53:31.514Z,69.55
2022-10-24T11:56:13.989Z,70.21
2022-10-24T11:59:05.592Z,70.12
2022-10-24T12:01:54.551Z,70.35
2022-10-24T12:05:01.308Z,70.19
2022-10-24T12:07:50.593Z,69.54
2022-10-24T12:10:58.449Z,69.38
2022-10-24T12:14:12.832Z,68.24
2022-10-24T12:17:16.976Z,67.08
2022-10-24T12:19:45.998Z,66.79
2022-10-24T12:25:17.450Z,65.92
2022-10-24T12:27:45.156Z,64.56
2022-10-24T12:30:12.129Z,64.72
2022-10-24T12:32:49.582Z,62.83
2022-10-24T12:35:49.412Z,62.15
2022-10-24T12:38:30.064Z,61.35
2022-10-24T12:41:14.995Z,60.62
2022-10-24T12:43:45.475Z,61.36
2022-10-24T12:46:21.698Z,58.24
2022-10-24T12:48:59.289Z,58.62
2022-10-24T12:51:38.583Z,59.36
2022-10-24T12:54:18.078Z,58.93
2022-10-24T12:56:53.880Z,59.58
2022-10-24T12:59:58.660Z,58.80
2022-10-24T13:03:00.642Z,59.40
2022-10-24T13:05:33.592Z,59.90
2022-10-24T13:08:27.576Z,58.67
2022-10-24T13:11:10.585Z,57.58
2022-10-24T13:14:12.077Z,57.34
2022-10-24T13:17:21.431Z,57.84
2022-10-24T13:20:17.590Z,58.71
2022-10-24T13:22:46.306Z,59.34
2022-10-24T13:25:39.079Z,60.26
2022-10-24T13:28:23.912Z,60.26
2022-10-24T13:31:17.986Z,60.47
2022-10-24T13:33:46.740Z,60.49
2022-10-24T13:36:27.071Z,60.30
2022-10-24T13:39:04.862Z,60.57
2022-10-24T13:41:41.731Z,60.99
2022-10-24T13:44:38.621Z,61.44
2022-10-24T13:47:55.912Z,61.98
2022-10-24T13:50:30.998Z,62.42
2022-10-24T13:53:21.023Z,62.68
2022-10-24T13:55:54.142Z,63.66
2022-10-24T13:58:27.007Z,63.86
2022-10-24T14:01:04.597Z,64.40
2022-10-24T14:03:34.843Z,65.01
2022-10-24T14:06:08.314Z,65.76
2022-10-24T14:09:00.813Z,66.01
2022-10-24T14:11:32.059Z,66.59
2022-10-24T14:14:06.105Z,67.03
2022-10-24T14:16:35.710Z,67.07
2022-10-24T14:19:27.073Z,66.72
2022-10-24T14:21:59.662Z,66.30
2022-10-24T14:24:26.848Z,66.40
2022-10-24T14:26:56.850Z,66.21
2022-10-24T14:29:32.530Z,66.47
2022-10-24T14:32:09.885Z,66.55
2022-10-24T14:34:38.937Z,66.91
2022-10-24T14:37:31.339Z,67.39
2022-10-24T14:40:00.794Z,66.94
2022-10-24T14:42:28.996Z,67.50
2022-10-24T14:44:58.492Z,67.19
2022-10-24T14:47:38.860Z,67.06
2022-10-24T14:50:36.831Z,66.61
2022-10-24T14:53:05.078Z,66.22
2022-10-24T14:55:32.799Z,65.99
2022-10-24T14:57:59.904Z,65.91
2022-10-24T15:00:40.145Z,65.32
2022-10-24T15:03:07.286Z,64.69
2022-10-24T15:05:36.196Z,64.68
2022-10-24T15:08:21.472Z,64.91
2022-10-24T15:11:00.568Z,65.02
2022-10-24T15:13:33.865Z,64.86
2022-10-24T15:16:02.622Z,65.20
2022-10-24T15:18:34.705Z,65.19
2022-10-24T15:21:15.423Z,65.12
2022-10-24T15:23:53.887Z,65.54
2022-10-24T15:26:28.488Z,65.35
2022-10-24T15:29:02.267Z,65.24
2022-10-24T15:31:33.744Z,65.05
2022-10-24T15:34:02.489Z,65.43
2022-10-24T15:36:36.191Z,66.03
2022-10-24T15:39:11.380Z,65.81
2022-10-24T15:41:40.026Z,66.16
2022-10-24T15:44:27.059Z,66.11
2022-10-24T15:46:55.368Z,66.56
2022-10-24T15:49:22.824Z,66.93
2022-10-24T15:51:51.293Z,67.21
2022-10-24T15:54:21.786Z,67.82
2022-10-24T15:56:50.251Z,67.95
2022-10-24T15:59:20.061Z,68.39
2022-10-24T16:01:55.874Z,68.99
2022-10-24T16:04:23.685Z,69.04
2022-10-24T16:06:51.988Z,69.38
2022-10-24T16:09:31.324Z,69.54
2022-10-24T16:12:00.211Z,69.86
2022-10-24T16:14:29.032Z,70.40
2022-10-24T16:16:57.443Z,70.53
2022-10-24T16:19:26.883Z,71.12
2022-10-24T16:22:01.010Z,71.74
2022-10-24T16:24:29.917Z,72.19
2022-10-24T16:26:57.862Z,72.51
2022-10-24T16:29:27.291Z,72.60
2022-10-24T16:31:54.860Z,73.00
2022-10-24T16:34:24.460Z,73.22
2022-10-24T16:36:55.590Z,73.43
2022-10-24T16:39:24.095Z,73.44
2022-10-24T16:41:55.214Z,73.80
2022-10-24T16:44:22.900Z,73.84
2022-10-24T16:46:54.207Z,74.05
2022-10-24T16:49:21.483Z,74.30
2022-10-24T16:51:49.710Z,74.47
2022-10-24T16:54:20.418Z,74.62
2022-10-24T16:56:53.675Z,74.84
2022-10-24T16:59:22.228Z,75.18
2022-10-24T17:01:51.895Z,75.48
2022-10-24T17:04:19.652Z,75.88
2022-10-24T17:06:47.721Z,76.10
2022-10-24T17:09:15.107Z,76.42
2022-10-24T17:11:46.263Z,76.79
2022-10-24T17:14:14.480Z,76.95
2022-10-24T17:16:42.875Z,76.78
2022-10-24T17:19:17.921Z,77.14
2022-10-24T17:21:49.018Z,77.34
2022-10-24T17:24:25.582Z,77.22
2022-10-24T17:26:53.642Z,77.55
2022-10-24T17:29:29.764Z,77.50
2022-10-24T17:31:58.097Z,77.67
2022-10-24T17:34:26.902Z,77.82
2022-10-24T17:37:19.203Z,77.66
2022-10-24T17:40:02.877Z,77.82
2022-10-24T17:42:30.203Z,78.40
2022-10-24T17:44:57.396Z,78.90
2022-10-24T17:47:24.530Z,78.74
2022-10-24T17:49:51.596Z,78.91
2022-10-24T17:52:23.885Z,78.90
2022-10-24T17:54:51.271Z,78.89
2022-10-24T17:57:18.244Z,78.88
2022-10-24T17:59:45.288Z,78.76
2022-10-24T18:02:14.234Z,79.12
2022-10-24T18:04:42.890Z,79.02
2022-10-24T18:07:10.735Z,79.22
2022-10-24T18:09:40.007Z,79.13
2022-10-24T18:12:07.300Z,79.16
2022-10-24T18:14:37.492Z,79.16
2022-10-24T18:17:05.432Z,79.13
2022-10-24T18:19:32.617Z,79.18
2022-10-24T18:21:59.756Z,79.20
2022-10-24T18:24:26.845Z,79.18
2022-10-24T18:26:53.819Z,79.20
2022-10-24T18:29:20.846Z,78.96
2022-10-24T18:31:47.964Z,78.99
2022-10-24T18:34:14.964Z,78.96
2022-10-24T18:36:41.961Z,79.11
2022-10-24T18:39:09.057Z,79.22
2022-10-24T18:41:48.187Z,79.56
2022-10-24T18:44:22.799Z,79.47
2022-10-24T18:46:52.383Z,79.73
2022-10-24T18:49:20.002Z,79.98
2022-10-24T18:52:14.727Z,80.18
2022-10-24T18:55:13.689Z,80.46
2022-10-24T18:57:40.957Z,80.52
2022-10-24T19:00:09.495Z,80.93
2022-10-24T19:02:40.464Z,81.13
2022-10-24T19:05:18.594Z,81.22
2022-10-24T19:07:48.218Z,81.56
2022-10-24T19:10:27.826Z,81.64
2022-10-24T19:12:57.200Z,81.91
2022-10-24T19:15:24.899Z,82.65
2022-10-24T19:17:52.090Z,82.43
2022-10-24T19:20:23.866Z,82.76
2022-10-24T19:22:51.224Z,82.59
2022-10-24T19:25:18.679Z,82.73
2022-10-24T19:27:46.091Z,82.57
2022-10-24T19:30:13.588Z,82.81
2022-10-24T19:32:40.706Z,83.20
2022-10-24T19:35:08.120Z,82.99
2022-10-24T19:37:37.049Z,83.31
2022-10-24T19:40:05.544Z,83.41
2022-10-24T19:42:32.868Z,83.30
2022-10-24T19:45:00.904Z,83.54
2022-10-24T19:47:27.942Z,83.31
2022-10-24T19:49:54.973Z,83.61
2022-10-24T19:52:22.024Z,83.91
2022-10-24T19:54:49.084Z,83.80
2022-10-24T19:57:16.611Z,84.21
2022-10-24T19:59:44.019Z,84.35
2022-10-24T20:02:13.647Z,84.73
2022-10-24T20:04:41.385Z,84.92
2022-10-24T20:07:10.000Z,85.02
2022-10-24T20:09:39.013Z,84.82
2022-10-24T20:12:06.484Z,84.68
2022-10-24T20:14:33.508Z,85.14
2022-10-24T20:17:01.551Z,85.14
2022-10-24T20:19:28.575Z,85.42
2022-10-24T20:21:58.971Z,85.56
2022-10-24T20:24:30.480Z,85.82
2022-10-24T20:26:57.562Z,86.24
2022-10-24T20:29:24.627Z,86.19
2022-10-24T20:31:51.752Z,86.37
2022-10-24T20:34:18.763Z,86.34
2022-10-24T20:36:47.966Z,86.51
2022-10-24T20:39:16.219Z,86.38
2022-10-24T20:41:43.538Z,86.60
2022-10-24T20:44:11.597Z,86.40
2022-10-24T20:46:38.990Z,86.34
2022-10-24T20:49:06.019Z,86.20
2022-10-24T20:51:33.239Z,86.21
2022-10-24T20:54:00.420Z,86.30
2022-10-24T20:56:27.587Z,85.69
2022-10-24T20:58:55.684Z,86.10
2022-10-24T21:01:27.360Z,86.27
2022-10-24T21:03:56.526Z,86.32
2022-10-24T21:06:25.811Z,86.46
2022-10-24T21:08:57.145Z,86.41
2022-10-24T21:11:28.365Z,86.32
2022-10-24T21:14:02.008Z,86.29
2022-10-24T21:16:29.751Z,86.67
2022-10-24T21:18:58.255Z,86.82
2022-10-24T21:21:26.502Z,86.70
2022-10-24T21:24:02.509Z,86.62
2022-10-24T21:26:35.057Z,86.50
2022-10-24T21:29:09.140Z,86.50
2022-10-24T21:31:52.068Z,86.64
2022-10-24T21:34:19.441Z,86.76
2022-10-24T21:36:46.556Z,86.70
2022-10-24T21:39:17.375Z,86.62
2022-10-24T21:41:46.813Z,86.77
2022-10-24T21:44:14.463Z,86.70
2022-10-24T21:46:41.982Z,86.83
2022-10-24T21:49:09.420Z,86.95
2022-10-24T21:51:39.270Z,87.38
2022-10-24T21:54:19.128Z,87.39
2022-10-24T21:56:46.804Z,87.45
2022-10-24T21:59:18.025Z,87.73
2022-10-24T22:01:47.395Z,87.95
2022-10-24T22:04:15.674Z,88.34
2022-10-24T22:06:43.605Z,88.56
2022-10-24T22:09:17.874Z,88.54
2022-10-24T22:11:45.679Z,88.34
2022-10-24T22:14:15.908Z,88.25
2022-10-24T22:16:48.804Z,88.59
2022-10-24T22:19:16.445Z,88.88
2022-10-24T22:21:47.578Z,89.25
2022-10-24T22:24:21.347Z,89.38
2022-10-24T22:26:49.891Z,89.34
2022-10-24T22:29:22.278Z,88.97
2022-10-24T22:31:52.672Z,89.07
2022-10-24T22:34:25.380Z,89.09
2022-10-24T22:37:23.431Z,88.98
2022-10-24T22:39:50.920Z,89.04
2022-10-24T22:42:20.232Z,89.08
2022-10-24T22:44:48.623Z,89.08
2022-10-24T22:47:40.855Z,88.92
2022-10-24T22:50:42.603Z,88.91
2022-10-24T22:53:14.389Z,88.77
2022-10-24T22:56:23.034Z,88.69
2022-10-24T22:58:50.379Z,88.95
2022-10-24T23:01:55.458Z,89.47
2022-10-24T23:04:42.043Z,89.41
2022-10-24T23:07:26.618Z,89.70
2022-10-24T23:09:55.086Z,89.64
2022-10-24T23:12:22.907Z,89.82
2022-10-24T23:14:53.266Z,90.16
2022-10-24T23:17:29.964Z,90.43
2022-10-24T23:19:57.711Z,90.42
2022-10-24T23:22:31.080Z,90.45
2022-10-24T23:25:01.243Z,90.72
2022-10-24T23:27:42.343Z,91.04
2022-10-24T23:30:20.450Z,91.30
2022-10-24T23:32:50.554Z,91.61
2022-10-24T23:35:19.841Z,91.62
2022-10-24T23:37:52.519Z,91.79
2022-10-24T23:40:38.745Z,92.14
2022-10-24T23:43:06.447Z,92.19
2022-10-24T23:45:48.887Z,92.02
2022-10-24T23:48:35.121Z,92.10
2022-10-24T23:51:31.042Z,91.67
2022-10-24T23:53:58.710Z,91.59
2022-10-24T23:56:28.796Z,91.49
2022-10-24T23:58:56.285Z,91.29
